Terminal Aerodrome Forecast
Issued by NWS Melbourne, FL

Home | Current Version | Previous Version | Text Only | Print | Product List | Glossary On
Versions: 1 2 3 4 5 6 7 8 9 10 11 12 13 14 15 16 17 18 19 20 21 22 23 24 25
000
FTUS42 KMLB 192337
TAFMCO
TAF
KMCO 192337Z 2000/2024 28008KT P6SM -SHRA VCTS SCT030 BKN050CB
      OVC110
      TEMPO 2001/2003 5SM TSRA SCT020CB BKN040 OVC080
     FM200400 20005KT P6SM VCSH FEW020 SCT030 OVC150
     FM201400 22009KT P6SM SCT030 BKN250
     FM201800 27011KT P6SM VCTS SCT040CB BKN080 BKN250=

USA.gov is the U.S. government's official web portal to all federal, state and local government web resources and services.